Terminal Aerodrome Forecast
Issued by NWS

Home | Current Version | Previous Version | Text Only | Print | Product List | Glossary On
Versions: 1 2 3 4 5 6 7 8 9 10 11 12 13
269
FTUS46 KMTR 091720
TAFSNS
TAF
KSNS 091720Z 0918/1018 11014KT P6SM FEW250
     FM091900 11008KT P6SM FEW250
     FM092200 31008KT P6SM SCT250
     FM100400 VRB03KT P6SM FEW250
     FM100900 11006KT P6SM FEW250
     FM101700 29006KT P6SM SKC=

USA.gov is the U.S. government's official web portal to all federal, state and local government web resources and services.